Pays
Station

 

Conditions  météo  pour  Paris/Le Bourget  -  France    France

  
1 °C
    
 
 

METAR pour Paris/Le Bourget :

LFPB 200700Z AUTO 02003KT 330V050 CAVOK 01/M00 Q1046 NOSIG

 

Voici le bulletin pour Paris/Le Bourget - France.
 
Le bulletin a été fait il y a 12 minutes, à 07:00 UTC .
Le vent soufflait à la vitesse de 1.5 mètres par seconde de Nord/Nord-est (020°), variant entre Nord/Nord-ouest (330°) et Nord-est (050°).
 
La température était de 1 °C
La température ressentie était de -1 °C.
 
La pression atmosphérique était de 1046 hPa.
Il y avait pas de nuages en-dessous de 1500 mètres et pas de cumulonimbus.
 
La visibilité globale était de supérieure à 10 kilomètres.
 

 
 
 

Pays :   A   B   C   D   E   F   G   H   I   J   K   L   M   N   O   P   Q   R   S   T   U   V   W   Y   Z

 

Partenaires :  Info Météo avec Met'info
Météo Marine avec MeteoMarine.net
Infos Site  |  Infos Légales  |  Crédits  |  Confidentialité
Contactez-nous  |  Ajouter aux favoris
© 2013-2020 METAR - Tous droits réservés